Buoy 53593

sailwx.info

Track history (hours):
 
Tides and Currents Weather Stations Pressure Air Temp Water Temp Dewpoint Dewpoint Depression Visibility Wind Speed Wind Dir Waves Ship Positions

Drifting buoy 53593

Last reported at 2017-Mar-27 22:00 UTC. Time now 2017-Mar-28 00:29 UTC.
Position S 22°13' E 102°08'.

Barometer 1015.0 mb
Water temperature 24.5 ° C

Date/timePositionNaut miles runAvg speedWind from/ knotsBaromVisibWave heightAir tempDewpointWater temp
2017-Mar-27 22:00S 22°13' E 102°08'0 0.0 1015.0 24.5
2017-Mar-27 21:00S 22°13' E 102°08'0 0.0 1014.9 24.5
2017-Mar-27 20:00S 22°13' E 102°08'3 0.6 1015.4 24.5
2017-Mar-27 15:00S 22°10' E 102°09'2 1.6 1016.6 24.6
2017-Mar-27 14:00S 22°09' E 102°10'0 0.0 1016.5 24.6
2017-Mar-27 13:00S 22°09' E 102°10'1 0.8 1016.1 24.6
2017-Mar-27 12:00S 22°08' E 102°11'0 0.0 1015.8 24.5
2017-Mar-27 11:00S 22°08' E 102°11'2 1.6 1015.3 24.5
2017-Mar-27 10:00S 22°07' E 102°12'0 0.0 1015.1 24.5
2017-Mar-27 09:00S 22°07' E 102°12'0 0.0 1014.7 24.6
2017-Mar-27 08:00S 22°07' E 102°12'0 0.0 1014.8 24.6
2017-Mar-27 01:00S 22°07' E 102°12'1 0.6 1016.8 24.5
2017-Mar-26 23:00S 22°06' E 102°12'3 3.1 1016.0 24.5
2017-Mar-26 22:00S 22°03' E 102°11'0 0.0 1015.7 24.5
2017-Mar-26 21:00S 22°03' E 102°11'0 0.0 1015.4 24.5
2017-Mar-26 20:00S 22°03' E 102°11'0 0.0 1015.8 24.5
2017-Mar-26 17:00S 22°03' E 102°11'1 0.4 1016.7 24.5
2017-Mar-26 15:00S 22°02' E 102°12'1 0.7 1016.9 24.5
2017-Mar-26 13:00S 22°01' E 102°13'0 0.0 1016.5 24.5
2017-Mar-26 12:00S 22°01' E 102°13'1 1.2 1015.8 24.5
2017-Mar-26 11:00S 22°00' E 102°13'1 0.6 1015.1 24.5
2017-Mar-26 10:00S 21°59' E 102°13'1 0.6 1014.8 24.6
2017-Mar-26 09:00S 21°59' E 102°13'1 0.8 1014.3 24.6
2017-Mar-26 08:00S 21°58' E 102°13'0 0.0 1014.5 24.6
2017-Mar-26 07:00S 21°58' E 102°13'2 2.1 1014.4 24.6
2017-Mar-26 06:00S 21°56' E 102°14'1 0.2 1015.0 24.6
2017-Mar-26 02:00S 21°56' E 102°15'0 0.0 1016.0 24.7
2017-Mar-26 01:00S 21°56' E 102°15'0 0.0 1015.2 24.7
2017-Mar-26 00:00S 21°56' E 102°15'1 0.7 1014.4 24.7
2017-Mar-25 22:00S 21°55' E 102°16'0 0.0 1013.5 24.7
2017-Mar-25 21:00S 21°55' E 102°16'2 0.2 1013.4 24.7
2017-Mar-25 12:00S 21°53' E 102°16'1 0.3 1013.2 24.7
2017-Mar-25 10:00S 21°52' E 102°16'0 0.0 1011.7 24.7
2017-Mar-25 09:00S 21°52' E 102°16'0 0.0 1011.6 24.7
2017-Mar-25 08:00S 21°52' E 102°16'2 2.5 1011.8 24.7
2017-Mar-25 07:00S 21°50' E 102°17'0 0.0 1012.2 24.7
2017-Mar-25 06:00S 21°50' E 102°17'1 0.2 1012.7 24.7
2017-Mar-25 02:00S 21°49' E 102°16'1 1.3 1013.4 24.6
2017-Mar-25 01:00S 21°48' E 102°17'1 1.1 1013.1 24.6
2017-Mar-25 00:00S 21°48' E 102°18'0 0.0 1012.6 24.6
2017-Mar-24 23:00S 21°48' E 102°18'1 0.7 1012.3 24.7
2017-Mar-24 21:00S 21°47' E 102°17'0 0.0 1012.2 24.7
2017-Mar-24 20:00S 21°47' E 102°17'1 0.7 1012.5 24.7
2017-Mar-24 18:00S 21°46' E 102°18'1 0.4 1013.2 24.7
2017-Mar-24 16:00S 21°46' E 102°19'1 0.4 1013.9 24.7
2017-Mar-24 14:00S 21°46' E 102°19'1 0.6 1014.0 24.7
2017-Mar-24 12:00S 21°44' E 102°19'1 0.4 1012.9 24.7
2017-Mar-24 10:00S 21°44' E 102°19'1 0.6 1011.9 24.7
2017-Mar-24 09:00S 21°43' E 102°19'0 0.0 1012.0 24.7
2017-Mar-24 07:00S 21°43' E 102°19'2 1.9 1012.6 24.7
2017-Mar-24 06:00S 21°41' E 102°19'0 0.0 1013.2 24.7
2017-Mar-24 02:00S 21°41' E 102°19'1 1.2 1014.5 24.7
2017-Mar-24 01:00S 21°40' E 102°19'0 0.0 1014.0 24.7
2017-Mar-24 00:00S 21°40' E 102°19'1 0.7 1013.4 24.7
2017-Mar-23 22:00S 21°39' E 102°20'0 0.0 1012.6 24.7
2017-Mar-23 21:00S 21°39' E 102°20'3 0.6 1012.4 24.7
2017-Mar-23 16:00S 21°37' E 102°22'1 0.4 1014.7 24.7
2017-Mar-23 14:00S 21°36' E 102°21'2 0.7 1014.6 24.8
2017-Mar-23 11:00S 21°34' E 102°22'0 0.0 1012.3 24.8
2017-Mar-23 10:00S 21°34' E 102°22'1 0.8 1012.2 24.8
2017-Mar-23 09:00S 21°34' E 102°22'0 0.0 1012.3 24.8
2017-Mar-23 07:00S 21°34' E 102°22'2 0.6 1012.4 24.8
2017-Mar-23 03:00S 21°32' E 102°23'0 0.0 1013.7 24.8
2017-Mar-23 00:00S 21°32' E 102°23'1 0.6 1013.3 24.8
2017-Mar-22 23:00S 21°31' E 102°23'1 0.8 1013.3 24.8
2017-Mar-22 22:00S 21°31' E 102°24'2 0.6 1013.0 24.8
2017-Mar-22 19:00S 21°29' E 102°24'1 0.1 1013.0 24.8
2017-Mar-22 14:00S 21°28' E 102°24'0 0.0 1013.9 24.8
2017-Mar-22 13:00S 21°28' E 102°24'1 0.6 1013.5 24.9
2017-Mar-22 11:00S 21°27' E 102°24'1 0.8 1012.2 24.9
2017-Mar-22 10:00S 21°26' E 102°25'1 1.2 1011.9 24.9
2017-Mar-22 09:00S 21°25' E 102°25'0 0.0 1011.7 24.9
2017-Mar-22 07:00S 21°25' E 102°25'3 0.8 1012.1 24.9
2017-Mar-22 03:00S 21°23' E 102°27'1 0.4 1013.8 24.9
2017-Mar-22 01:00S 21°22' E 102°28'1 0.6 1013.5 24.9
2017-Mar-22 00:00S 21°22' E 102°28'0 0.0 1013.0 24.9
2017-Mar-21 23:00S 21°22' E 102°28'1 0.6 1012.6 24.9
2017-Mar-21 22:00S 21°22' E 102°29'0 0.0 1012.2 24.9
2017-Mar-21 21:00S 21°22' E 102°29'1 0.6 1012.1 24.9
2017-Mar-21 20:00S 21°22' E 102°29'0 0.0 1012.2 24.9
2017-Mar-21 19:00S 21°22' E 102°29'1 0.1 1012.3 24.9
2017-Mar-21 13:00S 21°21' E 102°29'0 0.0 1013.4 24.9
2017-Mar-21 12:00S 21°21' E 102°29'0 0.0 1012.9 25.0
2017-Mar-21 11:00S 21°21' E 102°29'1 0.3 1012.4 25.0
2017-Mar-21 09:00S 21°21' E 102°29'4 3.6 1012.0 25.0
2017-Mar-21 08:00S 21°17' E 102°29'0 0.0 1012.0 25.0
2017-Mar-21 03:00S 21°17' E 102°29'0 0.0 1014.4 25.0
2017-Mar-21 02:00S 21°17' E 102°29'1 0.7 1014.6 25.0
2017-Mar-21 00:00S 21°16' E 102°30'1 0.8 1013.4 25.0
2017-Mar-20 23:00S 21°16' E 102°31'2 1.6 1013.0 25.0
2017-Mar-20 22:00S 21°14' E 102°32'0 0.0 1012.7 25.0
2017-Mar-20 21:00S 21°14' E 102°32'0 0.0 1012.5 25.0
2017-Mar-20 20:00S 21°14' E 102°32'1 1.3 1012.6 25.0
2017-Mar-20 19:00S 21°15' E 102°33'1 0.8 1013.0 25.0
2017-Mar-20 18:00S 21°14' E 102°34'1 0.3 1013.4 25.0
2017-Mar-20 15:00S 21°14' E 102°34'1 1.3 1014.3 25.0
2017-Mar-20 14:00S 21°14' E 102°35'0 0.0 1014.4 25.0
2017-Mar-20 13:00S 21°14' E 102°35'0 0.0 1014.2 25.0
2017-Mar-20 12:00S 21°14' E 102°35'1 0.6 1013.7 25.1
2017-Mar-20 11:00S 21°14' E 102°36'0 0.0 1013.2 25.1
2017-Mar-20 10:00S 21°14' E 102°36'0 0.0 1012.9 25.1
2017-Mar-20 09:00S 21°14' E 102°36'1 0.8 1013.0 25.1
2017-Mar-20 08:00S 21°15' E 102°35'2 0.4 1012.9 25.1
2017-Mar-20 02:00S 21°13' E 102°35'1 0.6 1015.9 25.1
2017-Mar-20 01:00S 21°13' E 102°35'0 0.0 1015.4 25.1
2017-Mar-20 00:00S 21°13' E 102°35'1 0.6 1015.1 25.1
2017-Mar-19 22:00S 21°12' E 102°35'1 1.3 1015.2 25.1
2017-Mar-19 21:00S 21°11' E 102°36'0 0.0 1015.4 25.1
2017-Mar-19 20:00S 21°11' E 102°36'1 0.1 1015.6 25.1
2017-Mar-19 16:00S 21°10' E 102°36'1 1.3 1017.2 25.1
2017-Mar-19 15:00S 21°09' E 102°37'1 0.8 1017.6 25.1
2017-Mar-19 14:00S 21°08' E 102°37'1 0.3 1017.6 25.1
2017-Mar-19 12:00S 21°08' E 102°38'4 2.1 1016.5 25.2
2017-Mar-19 10:00S 21°06' E 102°41'0 0.0 1015.5 25.2
2017-Mar-19 09:00S 21°06' E 102°41'0 0.0 1015.3 25.2
2017-Mar-19 08:00S 21°06' E 102°41'1 0.2 1015.3 25.2
2017-Mar-19 02:00S 21°05' E 102°43'1 0.6 1018.3 25.2
2017-Mar-19 00:00S 21°05' E 102°44'0 0.0 1017.4 25.2
2017-Mar-18 23:00S 21°05' E 102°44'4 0.5 1017.0 25.2
2017-Mar-18 14:00S 21°04' E 102°48'1 0.6 1017.6 25.2
2017-Mar-18 13:00S 21°04' E 102°49'1 0.6 1017.2 25.2
2017-Mar-18 12:00S 21°04' E 102°49'1 0.6 1016.7 25.2
2017-Mar-18 11:00S 21°03' E 102°49'1 1.3 1016.3 25.2
2017-Mar-18 10:00S 21°04' E 102°49'2 2.3 1015.6 25.2
2017-Mar-18 09:00S 21°04' E 102°51'0 0.0 1015.7 25.2
2017-Mar-18 08:00S 21°04' E 102°51'2 1.2 1015.4 25.2
2017-Mar-18 06:00S 21°03' E 102°53'0 0.0 1016.4 25.2
2017-Mar-18 03:00S 21°03' E 102°53'1 0.4 1016.5 25.2
2017-Mar-18 00:00S 21°02' E 102°55'1 0.6 1015.8 25.2
2017-Mar-17 23:00S 21°02' E 102°55'1 1.1 1015.0 25.2
2017-Mar-17 22:00S 21°02' E 102°56'   1014.6 25.2
Track history (hours):
 
Tides and Currents Weather Stations Pressure Air Temp Water Temp Dewpoint Dewpoint Depression Visibility Wind Speed Wind Dir Waves Ship Positions

Drifting buoy 53593

Last reported at 2017-Mar-27 22:00 UTC. Time now 2017-Mar-28 00:29 UTC.
Position S 22°13' E 102°08'.

Barometer 1015.0 mb
Water temperature 24.5 ° C

Date/timePositionNaut miles runAvg speedWind from/ knotsBaromVisibWave heightAir tempDewpointWater temp
2017-Mar-27 22:00S 22°13' E 102°08'0 0.0 1015.0 24.5
2017-Mar-27 21:00S 22°13' E 102°08'0 0.0 1014.9 24.5
2017-Mar-27 20:00S 22°13' E 102°08'3 0.6 1015.4 24.5
2017-Mar-27 15:00S 22°10' E 102°09'2 1.6 1016.6 24.6
2017-Mar-27 14:00S 22°09' E 102°10'0 0.0 1016.5 24.6
2017-Mar-27 13:00S 22°09' E 102°10'1 0.8 1016.1 24.6
2017-Mar-27 12:00S 22°08' E 102°11'0 0.0 1015.8 24.5
2017-Mar-27 11:00S 22°08' E 102°11'2 1.6 1015.3 24.5
2017-Mar-27 10:00S 22°07' E 102°12'0 0.0 1015.1 24.5
2017-Mar-27 09:00S 22°07' E 102°12'0 0.0 1014.7 24.6
2017-Mar-27 08:00S 22°07' E 102°12'0 0.0 1014.8 24.6
2017-Mar-27 01:00S 22°07' E 102°12'1 0.6 1016.8 24.5
2017-Mar-26 23:00S 22°06' E 102°12'3 3.1 1016.0 24.5
2017-Mar-26 22:00S 22°03' E 102°11'0 0.0 1015.7 24.5
2017-Mar-26 21:00S 22°03' E 102°11'0 0.0 1015.4 24.5
2017-Mar-26 20:00S 22°03' E 102°11'0 0.0 1015.8 24.5
2017-Mar-26 17:00S 22°03' E 102°11'1 0.4 1016.7 24.5
2017-Mar-26 15:00S 22°02' E 102°12'1 0.7 1016.9 24.5
2017-Mar-26 13:00S 22°01' E 102°13'0 0.0 1016.5 24.5
2017-Mar-26 12:00S 22°01' E 102°13'1 1.2 1015.8 24.5
2017-Mar-26 11:00S 22°00' E 102°13'1 0.6 1015.1 24.5
2017-Mar-26 10:00S 21°59' E 102°13'1 0.6 1014.8 24.6
2017-Mar-26 09:00S 21°59' E 102°13'1 0.8 1014.3 24.6
2017-Mar-26 08:00S 21°58' E 102°13'0 0.0 1014.5 24.6
2017-Mar-26 07:00S 21°58' E 102°13'2 2.1 1014.4 24.6
2017-Mar-26 06:00S 21°56' E 102°14'1 0.2 1015.0 24.6
2017-Mar-26 02:00S 21°56' E 102°15'0 0.0 1016.0 24.7
2017-Mar-26 01:00S 21°56' E 102°15'0 0.0 1015.2 24.7
2017-Mar-26 00:00S 21°56' E 102°15'1 0.7 1014.4 24.7
2017-Mar-25 22:00S 21°55' E 102°16'0 0.0 1013.5 24.7
2017-Mar-25 21:00S 21°55' E 102°16'2 0.2 1013.4 24.7
2017-Mar-25 12:00S 21°53' E 102°16'1 0.3 1013.2 24.7
2017-Mar-25 10:00S 21°52' E 102°16'0 0.0 1011.7 24.7
2017-Mar-25 09:00S 21°52' E 102°16'0 0.0 1011.6 24.7
2017-Mar-25 08:00S 21°52' E 102°16'2 2.5 1011.8 24.7
2017-Mar-25 07:00S 21°50' E 102°17'0 0.0 1012.2 24.7
2017-Mar-25 06:00S 21°50' E 102°17'1 0.2 1012.7 24.7
2017-Mar-25 02:00S 21°49' E 102°16'1 1.3 1013.4 24.6
2017-Mar-25 01:00S 21°48' E 102°17'1 1.1 1013.1 24.6
2017-Mar-25 00:00S 21°48' E 102°18'0 0.0 1012.6 24.6
2017-Mar-24 23:00S 21°48' E 102°18'1 0.7 1012.3 24.7
2017-Mar-24 21:00S 21°47' E 102°17'0 0.0 1012.2 24.7
2017-Mar-24 20:00S 21°47' E 102°17'1 0.7 1012.5 24.7
2017-Mar-24 18:00S 21°46' E 102°18'1 0.4 1013.2 24.7
2017-Mar-24 16:00S 21°46' E 102°19'1 0.4 1013.9 24.7
2017-Mar-24 14:00S 21°46' E 102°19'1 0.6 1014.0 24.7
2017-Mar-24 12:00S 21°44' E 102°19'1 0.4 1012.9 24.7
2017-Mar-24 10:00S 21°44' E 102°19'1 0.6 1011.9 24.7
2017-Mar-24 09:00S 21°43' E 102°19'0 0.0 1012.0 24.7
2017-Mar-24 07:00S 21°43' E 102°19'2 1.9 1012.6 24.7
2017-Mar-24 06:00S 21°41' E 102°19'0 0.0 1013.2 24.7
2017-Mar-24 02:00S 21°41' E 102°19'1 1.2 1014.5 24.7
2017-Mar-24 01:00S 21°40' E 102°19'0 0.0 1014.0 24.7
2017-Mar-24 00:00S 21°40' E 102°19'1 0.7 1013.4 24.7
2017-Mar-23 22:00S 21°39' E 102°20'0 0.0 1012.6 24.7
2017-Mar-23 21:00S 21°39' E 102°20'3 0.6 1012.4 24.7
2017-Mar-23 16:00S 21°37' E 102°22'1 0.4 1014.7 24.7
2017-Mar-23 14:00S 21°36' E 102°21'2 0.7 1014.6 24.8
2017-Mar-23 11:00S 21°34' E 102°22'0 0.0 1012.3 24.8
2017-Mar-23 10:00S 21°34' E 102°22'1 0.8 1012.2 24.8
2017-Mar-23 09:00S 21°34' E 102°22'0 0.0 1012.3 24.8
2017-Mar-23 07:00S 21°34' E 102°22'2 0.6 1012.4 24.8
2017-Mar-23 03:00S 21°32' E 102°23'0 0.0 1013.7 24.8
2017-Mar-23 00:00S 21°32' E 102°23'1 0.6 1013.3 24.8
2017-Mar-22 23:00S 21°31' E 102°23'1 0.8 1013.3 24.8
2017-Mar-22 22:00S 21°31' E 102°24'2 0.6 1013.0 24.8
2017-Mar-22 19:00S 21°29' E 102°24'1 0.1 1013.0 24.8
2017-Mar-22 14:00S 21°28' E 102°24'0 0.0 1013.9 24.8
2017-Mar-22 13:00S 21°28' E 102°24'1 0.6 1013.5 24.9
2017-Mar-22 11:00S 21°27' E 102°24'1 0.8 1012.2 24.9
2017-Mar-22 10:00S 21°26' E 102°25'1 1.2 1011.9 24.9
2017-Mar-22 09:00S 21°25' E 102°25'0 0.0 1011.7 24.9
2017-Mar-22 07:00S 21°25' E 102°25'3 0.8 1012.1 24.9
2017-Mar-22 03:00S 21°23' E 102°27'1 0.4 1013.8 24.9
2017-Mar-22 01:00S 21°22' E 102°28'1 0.6 1013.5 24.9
2017-Mar-22 00:00S 21°22' E 102°28'0 0.0 1013.0 24.9
2017-Mar-21 23:00S 21°22' E 102°28'1 0.6 1012.6 24.9
2017-Mar-21 22:00S 21°22' E 102°29'0 0.0 1012.2 24.9
2017-Mar-21 21:00S 21°22' E 102°29'1 0.6 1012.1 24.9
2017-Mar-21 20:00S 21°22' E 102°29'0 0.0 1012.2 24.9
2017-Mar-21 19:00S 21°22' E 102°29'1 0.1 1012.3 24.9
2017-Mar-21 13:00S 21°21' E 102°29'0 0.0 1013.4 24.9
2017-Mar-21 12:00S 21°21' E 102°29'0 0.0 1012.9 25.0
2017-Mar-21 11:00S 21°21' E 102°29'1 0.3 1012.4 25.0
2017-Mar-21 09:00S 21°21' E 102°29'4 3.6 1012.0 25.0
2017-Mar-21 08:00S 21°17' E 102°29'0 0.0 1012.0 25.0
2017-Mar-21 03:00S 21°17' E 102°29'0 0.0 1014.4 25.0
2017-Mar-21 02:00S 21°17' E 102°29'1 0.7 1014.6 25.0
2017-Mar-21 00:00S 21°16' E 102°30'1 0.8 1013.4 25.0
2017-Mar-20 23:00S 21°16' E 102°31'2 1.6 1013.0 25.0
2017-Mar-20 22:00S 21°14' E 102°32'0 0.0 1012.7 25.0
2017-Mar-20 21:00S 21°14' E 102°32'0 0.0 1012.5 25.0
2017-Mar-20 20:00S 21°14' E 102°32'1 1.3 1012.6 25.0
2017-Mar-20 19:00S 21°15' E 102°33'1 0.8 1013.0 25.0
2017-Mar-20 18:00S 21°14' E 102°34'1 0.3 1013.4 25.0
2017-Mar-20 15:00S 21°14' E 102°34'1 1.3 1014.3 25.0
2017-Mar-20 14:00S 21°14' E 102°35'0 0.0 1014.4 25.0
2017-Mar-20 13:00S 21°14' E 102°35'0 0.0 1014.2 25.0
2017-Mar-20 12:00S 21°14' E 102°35'1 0.6 1013.7 25.1
2017-Mar-20 11:00S 21°14' E 102°36'0 0.0 1013.2 25.1
2017-Mar-20 10:00S 21°14' E 102°36'0 0.0 1012.9 25.1
2017-Mar-20 09:00S 21°14' E 102°36'1 0.8 1013.0 25.1
2017-Mar-20 08:00S 21°15' E 102°35'2 0.4 1012.9 25.1
2017-Mar-20 02:00S 21°13' E 102°35'1 0.6 1015.9 25.1
2017-Mar-20 01:00S 21°13' E 102°35'0 0.0 1015.4 25.1
2017-Mar-20 00:00S 21°13' E 102°35'1 0.6 1015.1 25.1
2017-Mar-19 22:00S 21°12' E 102°35'1 1.3 1015.2 25.1
2017-Mar-19 21:00S 21°11' E 102°36'0 0.0 1015.4 25.1
2017-Mar-19 20:00S 21°11' E 102°36'1 0.1 1015.6 25.1
2017-Mar-19 16:00S 21°10' E 102°36'1 1.3 1017.2 25.1
2017-Mar-19 15:00S 21°09' E 102°37'1 0.8 1017.6 25.1
2017-Mar-19 14:00S 21°08' E 102°37'1 0.3 1017.6 25.1
2017-Mar-19 12:00S 21°08' E 102°38'4 2.1 1016.5 25.2
2017-Mar-19 10:00S 21°06' E 102°41'0 0.0 1015.5 25.2
2017-Mar-19 09:00S 21°06' E 102°41'0 0.0 1015.3 25.2
2017-Mar-19 08:00S 21°06' E 102°41'1 0.2 1015.3 25.2
2017-Mar-19 02:00S 21°05' E 102°43'1 0.6 1018.3 25.2
2017-Mar-19 00:00S 21°05' E 102°44'0 0.0 1017.4 25.2
2017-Mar-18 23:00S 21°05' E 102°44'4 0.5 1017.0 25.2
2017-Mar-18 14:00S 21°04' E 102°48'1 0.6 1017.6 25.2
2017-Mar-18 13:00S 21°04' E 102°49'1 0.6 1017.2 25.2
2017-Mar-18 12:00S 21°04' E 102°49'1 0.6 1016.7 25.2
2017-Mar-18 11:00S 21°03' E 102°49'1 1.3 1016.3 25.2
2017-Mar-18 10:00S 21°04' E 102°49'2 2.3 1015.6 25.2
2017-Mar-18 09:00S 21°04' E 102°51'0 0.0 1015.7 25.2
2017-Mar-18 08:00S 21°04' E 102°51'2 1.2 1015.4 25.2
2017-Mar-18 06:00S 21°03' E 102°53'0 0.0 1016.4 25.2
2017-Mar-18 03:00S 21°03' E 102°53'1 0.4 1016.5 25.2
2017-Mar-18 00:00S 21°02' E 102°55'1 0.6 1015.8 25.2
2017-Mar-17 23:00S 21°02' E 102°55'1 1.1 1015.0 25.2
2017-Mar-17 22:00S 21°02' E 102°56'   1014.6 25.2

Dump ship's entire track history